sensor_id;sensor_type;location;lat;lon;timestamp;pressure;altitude;pressure_sealevel;temperature;humidity
68489;BME280;55481;48.764;8.936;2023-03-23T00:00:15;96450;;;13.2;54
68489;BME280;55481;48.764;8.936;2023-03-23T00:05:09;96440;;;13.1;54
68489;BME280;55481;48.764;8.936;2023-03-23T00:10:11;96430;;;13.1;54
68489;BME280;55481;48.764;8.936;2023-03-23T00:12:41;96430;;;13.1;54
68489;BME280;55481;48.764;8.936;2023-03-23T00:15:12;96430;;;13.1;54
68489;BME280;55481;48.764;8.936;2023-03-23T00:17:43;96430;;;13.1;54
68489;BME280;55481;48.764;8.936;2023-03-23T00:20:14;96440;;;13.1;54
68489;BME280;55481;48.764;8.936;2023-03-23T00:22:45;96430;;;13;54
68489;BME280;55481;48.764;8.936;2023-03-23T00:30:17;96420;;;13;54.5
68489;BME280;55481;48.764;8.936;2023-03-23T00:32:48;96420;;;12.9;54.5
68489;BME280;55481;48.764;8.936;2023-03-23T00:35:45;96420;;;12.9;54.5
68489;BME280;55481;48.764;8.936;2023-03-23T00:38:02;96420;;;12.9;54
68489;BME280;55481;48.764;8.936;2023-03-23T00:40:32;96410;;;12.9;54.5
68489;BME280;55481;48.764;8.936;2023-03-23T00:45:27;96400;;;12.9;54.5
68489;BME280;55481;48.764;8.936;2023-03-23T00:47:58;96400;;;12.9;54.5
68489;BME280;55481;48.764;8.936;2023-03-23T00:50:28;96390;;;13;54
68489;BME280;55481;48.764;8.936;2023-03-23T00:52:59;96390;;;13;54
68489;BME280;55481;48.764;8.936;2023-03-23T00:55:37;96390;;;13;54
68489;BME280;55481;48.764;8.936;2023-03-23T00:58:08;96390;;;13;54.5
68489;BME280;55481;48.764;8.936;2023-03-23T01:00:32;96390;;;13;54.5
68489;BME280;55481;48.764;8.936;2023-03-23T01:03:04;96390;;;13;54.5
68489;BME280;55481;48.764;8.936;2023-03-23T01:08:06;96380;;;13;54.5
68489;BME280;55481;48.764;8.936;2023-03-23T01:13:14;96380;;;13;54.5
68489;BME280;55481;48.764;8.936;2023-03-23T01:15:44;96380;;;13;54.5
68489;BME280;55481;48.764;8.936;2023-03-23T01:18:08;96370;;;13;54.5
68489;BME280;55481;48.764;8.936;2023-03-23T01:20:38;96370;;;13;54.5
68489;BME280;55481;48.764;8.936;2023-03-23T01:23:09;96380;;;13;54.5
68489;BME280;55481;48.764;8.936;2023-03-23T01:25:46;96370;;;13;54.5
68489;BME280;55481;48.764;8.936;2023-03-23T01:28:17;96360;;;12.9;54.5
68489;BME280;55481;48.764;8.936;2023-03-23T01:33:13;96350;;;13;54.5
68489;BME280;55481;48.764;8.936;2023-03-23T01:35:44;96360;;;13;54.5
68489;BME280;55481;48.764;8.936;2023-03-23T01:38:16;96350;;;13;54.5
68489;BME280;55481;48.764;8.936;2023-03-23T01:40:46;96350;;;13;54.5
68489;BME280;55481;48.764;8.936;2023-03-23T01:43:18;96340;;;13;54.5
68489;BME280;55481;48.764;8.936;2023-03-23T01:48:22;96340;;;12.9;54.5
68489;BME280;55481;48.764;8.936;2023-03-23T01:50:52;96340;;;12.9;54.5
68489;BME280;55481;48.764;8.936;2023-03-23T01:53:20;96340;;;12.9;54.5
68489;BME280;55481;48.764;8.936;2023-03-23T01:55:57;96350;;;12.8;54.5
68489;BME280;55481;48.764;8.936;2023-03-23T02:00:54;96350;;;12.8;55
68489;BME280;55481;48.764;8.936;2023-03-23T02:06:01;96350;;;12.7;55
68489;BME280;55481;48.764;8.936;2023-03-23T02:08:31;96350;;;12.6;55
68489;BME280;55481;48.764;8.936;2023-03-23T02:10:55;96350;;;12.6;55
68489;BME280;55481;48.764;8.936;2023-03-23T02:13:26;96340;;;12.5;55
68489;BME280;55481;48.764;8.936;2023-03-23T02:16:01;96350;;;12.5;55
68489;BME280;55481;48.764;8.936;2023-03-23T02:18:34;96350;;;12.5;55
68489;BME280;55481;48.764;8.936;2023-03-23T02:27:20;96330;;;12.4;55.5
68489;BME280;55481;48.764;8.936;2023-03-23T02:29:55;96340;;;12.3;55.5
68489;BME280;55481;48.764;8.936;2023-03-23T02:36:10;96310;;;11.9;56
68489;BME280;55481;48.764;8.936;2023-03-23T02:41:01;96310;;;11.8;56
68489;BME280;55481;48.764;8.936;2023-03-23T02:43:33;96320;;;11.8;56
68489;BME280;55481;48.764;8.936;2023-03-23T02:46:04;96310;;;11.7;56
68489;BME280;55481;48.764;8.936;2023-03-23T02:48:39;96300;;;11.8;56
68489;BME280;55481;48.764;8.936;2023-03-23T02:53:47;96290;;;11.7;56
68489;BME280;55481;48.764;8.936;2023-03-23T02:56:11;96290;;;11.7;56
68489;BME280;55481;48.764;8.936;2023-03-23T03:03:36;96290;;;11.7;56
68489;BME280;55481;48.764;8.936;2023-03-23T03:06:13;96290;;;11.8;56
68489;BME280;55481;48.764;8.936;2023-03-23T03:08:44;96290;;;11.8;55.5
68489;BME280;55481;48.764;8.936;2023-03-23T03:11:09;96290;;;11.8;55.5
68489;BME280;55481;48.764;8.936;2023-03-23T03:13:48;96290;;;11.9;55.5
68489;BME280;55481;48.764;8.936;2023-03-23T03:21:32;96300;;;12;55.5
68489;BME280;55481;48.764;8.936;2023-03-23T03:26:18;96290;;;12;55.5
68489;BME280;55481;48.764;8.936;2023-03-23T03:28:44;96290;;;12;55.5
68489;BME280;55481;48.764;8.936;2023-03-23T03:31:13;96290;;;11.9;55.5
68489;BME280;55481;48.764;8.936;2023-03-23T03:33:45;96290;;;11.9;56
68489;BME280;55481;48.764;8.936;2023-03-23T03:36:08;96290;;;11.9;56
68489;BME280;55481;48.764;8.936;2023-03-23T03:43:40;96290;;;11.9;56
68489;BME280;55481;48.764;8.936;2023-03-23T03:46:13;96290;;;11.8;56
68489;BME280;55481;48.764;8.936;2023-03-23T03:48:42;96280;;;11.8;56
68489;BME280;55481;48.764;8.936;2023-03-23T03:51:13;96280;;;11.9;56
68489;BME280;55481;48.764;8.936;2023-03-23T03:53:44;96280;;;12.1;55.5
68489;BME280;55481;48.764;8.936;2023-03-23T03:58:51;96280;;;12.3;55
68489;BME280;55481;48.764;8.936;2023-03-23T04:01:23;96280;;;12.5;55
68489;BME280;55481;48.764;8.936;2023-03-23T04:03:53;96280;;;12.5;55
68489;BME280;55481;48.764;8.936;2023-03-23T04:06:24;96280;;;12.5;55
68489;BME280;55481;48.764;8.936;2023-03-23T04:13:49;96280;;;12.7;54.5
68489;BME280;55481;48.764;8.936;2023-03-23T04:16:21;96270;;;12.7;55
68489;BME280;55481;48.764;8.936;2023-03-23T04:21:22;96270;;;12.6;55
68489;BME280;55481;48.764;8.936;2023-03-23T04:23:52;96270;;;12.6;55
68489;BME280;55481;48.764;8.936;2023-03-23T04:26:23;96270;;;12.6;55
68489;BME280;55481;48.764;8.936;2023-03-23T04:28:55;96270;;;12.6;55
68489;BME280;55481;48.764;8.936;2023-03-23T04:31:32;96260;;;12.6;55
68489;BME280;55481;48.764;8.936;2023-03-23T04:34:02;96260;;;12.6;55
68489;BME280;55481;48.764;8.936;2023-03-23T04:36:33;96260;;;12.6;55
68489;BME280;55481;48.764;8.936;2023-03-23T04:39:11;96260;;;12.6;55
68489;BME280;55481;48.764;8.936;2023-03-23T04:46:56;96270;;;12.7;55
68489;BME280;55481;48.764;8.936;2023-03-23T04:49:13;96270;;;12.7;55
68489;BME280;55481;48.764;8.936;2023-03-23T04:54:07;96270;;;12.9;55
68489;BME280;55481;48.764;8.936;2023-03-23T04:56:38;96270;;;12.8;55
68489;BME280;55481;48.764;8.936;2023-03-23T05:01:35;96270;;;12.9;55
68489;BME280;55481;48.764;8.936;2023-03-23T05:09:06;96260;;;12.8;55
68489;BME280;55481;48.764;8.936;2023-03-23T05:11:37;96260;;;12.8;55
68489;BME280;55481;48.764;8.936;2023-03-23T05:14:07;96250;;;12.8;55
68489;BME280;55481;48.764;8.936;2023-03-23T05:16:39;96260;;;12.8;55
68489;BME280;55481;48.764;8.936;2023-03-23T05:19:09;96260;;;12.8;55
68489;BME280;55481;48.764;8.936;2023-03-23T05:24:17;96270;;;12.7;55.5
68489;BME280;55481;48.764;8.936;2023-03-23T05:26:48;96260;;;12.7;55.5
68489;BME280;55481;48.764;8.936;2023-03-23T05:29:18;96260;;;12.7;55.5
68489;BME280;55481;48.764;8.936;2023-03-23T05:39:15;96260;;;12.8;55.5
68489;BME280;55481;48.764;8.936;2023-03-23T05:41:46;96260;;;12.8;55.5
68489;BME280;55481;48.764;8.936;2023-03-23T05:44:16;96260;;;12.8;55.5
68489;BME280;55481;48.764;8.936;2023-03-23T05:46:47;96260;;;12.8;55.5
68489;BME280;55481;48.764;8.936;2023-03-23T05:49:24;96270;;;12.8;55
68489;BME280;55481;48.764;8.936;2023-03-23T05:51:56;96270;;;12.9;55
68489;BME280;55481;48.764;8.936;2023-03-23T05:54:27;96280;;;12.8;55.5
68489;BME280;55481;48.764;8.936;2023-03-23T05:56:57;96280;;;12.8;55.5
68489;BME280;55481;48.764;8.936;2023-03-23T05:59:29;96280;;;12.8;55.5
68489;BME280;55481;48.764;8.936;2023-03-23T06:06:54;96300;;;12.9;55.5
68489;BME280;55481;48.764;8.936;2023-03-23T06:09:26;96300;;;12.8;55.5
68489;BME280;55481;48.764;8.936;2023-03-23T06:11:56;96300;;;12.9;55.5
68489;BME280;55481;48.764;8.936;2023-03-23T06:14:26;96300;;;12.9;55.5
68489;BME280;55481;48.764;8.936;2023-03-23T06:16:57;96310;;;12.9;55.5
68489;BME280;55481;48.764;8.936;2023-03-23T06:19:28;96310;;;13;55
68489;BME280;55481;48.764;8.936;2023-03-23T06:21:59;96320;;;12.9;55.5
68489;BME280;55481;48.764;8.936;2023-03-23T06:24:29;96330;;;12.9;55.5
68489;BME280;55481;48.764;8.936;2023-03-23T06:27:00;96320;;;12.9;55.5
68489;BME280;55481;48.764;8.936;2023-03-23T06:29:30;96330;;;12.9;55.5
68489;BME280;55481;48.764;8.936;2023-03-23T06:39:40;96320;;;13;55.5
68489;BME280;55481;48.764;8.936;2023-03-23T06:42:11;96330;;;13.1;55.5
68489;BME280;55481;48.764;8.936;2023-03-23T06:44:42;96330;;;13.1;55.5
68489;BME280;55481;48.764;8.936;2023-03-23T06:49:37;96330;;;13.2;55
68489;BME280;55481;48.764;8.936;2023-03-23T06:52:07;96350;;;13.2;55
68489;BME280;55481;48.764;8.936;2023-03-23T06:54:38;96350;;;13.2;55.5
68489;BME280;55481;48.764;8.936;2023-03-23T06:57:09;96350;;;13.2;55.5
68489;BME280;55481;48.764;8.936;2023-03-23T07:04:41;96350;;;13.1;55.5
68489;BME280;55481;48.764;8.936;2023-03-23T07:12:13;96360;;;13.1;55.5
68489;BME280;55481;48.764;8.936;2023-03-23T07:17:28;96370;;;13.2;55.5
68489;BME280;55481;48.764;8.936;2023-03-23T07:19:58;96370;;;13.1;56
68489;BME280;55481;48.764;8.936;2023-03-23T07:24:51;96380;;;13.2;56
68489;BME280;55481;48.764;8.936;2023-03-23T07:27:22;96390;;;13.2;55.5
68489;BME280;55481;48.764;8.936;2023-03-23T07:29:53;96400;;;13.2;56
68489;BME280;55481;48.764;8.936;2023-03-23T07:39:49;96400;;;13.6;55
68489;BME280;55481;48.764;8.936;2023-03-23T07:42:20;96390;;;13.9;54.5
68489;BME280;55481;48.764;8.936;2023-03-23T07:44:54;96390;;;14.1;54.5
68489;BME280;55481;48.764;8.936;2023-03-23T07:47:22;96390;;;14.2;54
68489;BME280;55481;48.764;8.936;2023-03-23T07:49:52;96380;;;14.2;54.5
68489;BME280;55481;48.764;8.936;2023-03-23T07:52:30;96380;;;14.4;54
68489;BME280;55481;48.764;8.936;2023-03-23T07:55:01;96380;;;14.3;54.5
68489;BME280;55481;48.764;8.936;2023-03-23T07:57:32;96390;;;14.5;54
68489;BME280;55481;48.764;8.936;2023-03-23T07:59:57;96400;;;14.4;54.5
68489;BME280;55481;48.764;8.936;2023-03-23T08:07:28;96400;;;14.3;55
68489;BME280;55481;48.764;8.936;2023-03-23T08:09:59;96400;;;14.4;55
68489;BME280;55481;48.764;8.936;2023-03-23T08:12:30;96400;;;14.4;55
68489;BME280;55481;48.764;8.936;2023-03-23T08:15:00;96400;;;14.4;55
68489;BME280;55481;48.764;8.936;2023-03-23T08:17:31;96400;;;14.4;54.5
68489;BME280;55481;48.764;8.936;2023-03-23T08:20:09;96400;;;14.4;54.5
68489;BME280;55481;48.764;8.936;2023-03-23T08:22:33;96410;;;14.5;54.5
68489;BME280;55481;48.764;8.936;2023-03-23T08:25:04;96410;;;14.5;54.5
68489;BME280;55481;48.764;8.936;2023-03-23T08:27:34;96420;;;14.4;55
68489;BME280;55481;48.764;8.936;2023-03-23T08:40:14;96430;;;14.1;55.5
68489;BME280;55481;48.764;8.936;2023-03-23T08:42:45;96430;;;14.2;55.5
68489;BME280;55481;48.764;8.936;2023-03-23T08:45:18;96430;;;14.1;55.5
68489;BME280;55481;48.764;8.936;2023-03-23T08:50:12;96440;;;14;56
68489;BME280;55481;48.764;8.936;2023-03-23T08:52:41;96440;;;14;56
68489;BME280;55481;48.764;8.936;2023-03-23T08:55:12;96440;;;14;56
68489;BME280;55481;48.764;8.936;2023-03-23T08:57:43;96440;;;14;55.5
68489;BME280;55481;48.764;8.936;2023-03-23T09:05:15;96450;;;14.2;55.5
68489;BME280;55481;48.764;8.936;2023-03-23T09:07:47;96450;;;14.3;55.5
68489;BME280;55481;48.764;8.936;2023-03-23T09:10:16;96450;;;14.3;55
68489;BME280;55481;48.764;8.936;2023-03-23T09:12:47;96450;;;14.4;55
68489;BME280;55481;48.764;8.936;2023-03-23T09:15:25;96460;;;14.4;55
68489;BME280;55481;48.764;8.936;2023-03-23T09:17:56;96450;;;14.4;55
68489;BME280;55481;48.764;8.936;2023-03-23T09:20:27;96450;;;14.5;55
68489;BME280;55481;48.764;8.936;2023-03-23T09:22:57;96460;;;14.7;55
68489;BME280;55481;48.764;8.936;2023-03-23T09:25:28;96460;;;14.9;54.5
68489;BME280;55481;48.764;8.936;2023-03-23T09:35:27;96470;;;15.1;55
68489;BME280;55481;48.764;8.936;2023-03-23T09:37:55;96470;;;15;55
68489;BME280;55481;48.764;8.936;2023-03-23T09:40:28;96480;;;15.1;55
68489;BME280;55481;48.764;8.936;2023-03-23T09:43:04;96470;;;15;55
68489;BME280;55481;48.764;8.936;2023-03-23T09:45:38;96480;;;15;55
68489;BME280;55481;48.764;8.936;2023-03-23T09:48:38;96480;;;15.1;55
68489;BME280;55481;48.764;8.936;2023-03-23T09:50:36;96480;;;15.2;55
68489;BME280;55481;48.764;8.936;2023-03-23T09:55:31;96490;;;15.4;54.5
68489;BME280;55481;48.764;8.936;2023-03-23T10:03:20;96480;;;15.7;54
68489;BME280;55481;48.764;8.936;2023-03-23T10:05:36;96480;;;15.9;54
68489;BME280;55481;48.764;8.936;2023-03-23T10:08:09;96470;;;15.8;54
68489;BME280;55481;48.764;8.936;2023-03-23T10:10:39;96470;;;15.7;54.5
68489;BME280;55481;48.764;8.936;2023-03-23T10:13:09;96470;;;15.3;55.5
68489;BME280;55481;48.764;8.936;2023-03-23T10:18:17;96480;;;15.4;55.5
68489;BME280;55481;48.764;8.936;2023-03-23T10:20:48;96480;;;15.4;55.5
68489;BME280;55481;48.764;8.936;2023-03-23T10:25:42;96490;;;15.1;56
68489;BME280;55481;48.764;8.936;2023-03-23T10:28:12;96490;;;15.1;56
68489;BME280;55481;48.764;8.936;2023-03-23T10:30:44;96490;;;15.3;55.5
68489;BME280;55481;48.764;8.936;2023-03-23T10:33:15;96480;;;15.4;55.5
68489;BME280;55481;48.764;8.936;2023-03-23T10:35:46;96490;;;16;54
68489;BME280;55481;48.764;8.936;2023-03-23T10:38:16;96490;;;16.1;54
68489;BME280;55481;48.764;8.936;2023-03-23T10:40:48;96490;;;16.3;54
68489;BME280;55481;48.764;8.936;2023-03-23T10:45:48;96480;;;16.6;53.5
68489;BME280;55481;48.764;8.936;2023-03-23T10:48:27;96480;;;16.9;53
68489;BME280;55481;48.764;8.936;2023-03-23T10:50:50;96480;;;16.4;54.5
68489;BME280;55481;48.764;8.936;2023-03-23T10:53:21;96480;;;16.3;55
68489;BME280;55481;48.764;8.936;2023-03-23T10:55:49;96490;;;15.9;55.5
68489;BME280;55481;48.764;8.936;2023-03-23T10:58:22;96490;;;15.8;56
68489;BME280;55481;48.764;8.936;2023-03-23T11:00:51;96480;;;15.8;55.5
68489;BME280;55481;48.764;8.936;2023-03-23T11:08:25;96480;;;15.9;55.5
68489;BME280;55481;48.764;8.936;2023-03-23T11:13:32;96480;;;15.5;56.5
68489;BME280;55481;48.764;8.936;2023-03-23T11:18:39;96480;;;16.2;55
68489;BME280;55481;48.764;8.936;2023-03-23T11:21:10;96480;;;16.1;55
68489;BME280;55481;48.764;8.936;2023-03-23T11:23:34;96480;;;16;55.5
68489;BME280;55481;48.764;8.936;2023-03-23T11:26:35;96470;;;16;55.5
68489;BME280;55481;48.764;8.936;2023-03-23T11:28:42;96460;;;16.4;55
68489;BME280;55481;48.764;8.936;2023-03-23T11:38:44;96460;;;16.3;55
68489;BME280;55481;48.764;8.936;2023-03-23T11:41:18;96460;;;16.1;55.5
68489;BME280;55481;48.764;8.936;2023-03-23T11:46:15;96460;;;16.4;55
68489;BME280;55481;48.764;8.936;2023-03-23T11:48:45;96460;;;16.4;55
68489;BME280;55481;48.764;8.936;2023-03-23T11:51:13;96470;;;16.4;55
68489;BME280;55481;48.764;8.936;2023-03-23T11:53:45;96470;;;16.2;55.5
68489;BME280;55481;48.764;8.936;2023-03-23T11:56:49;96470;;;16.3;55.5
68489;BME280;55481;48.764;8.936;2023-03-23T11:58:49;96470;;;16.5;55
68489;BME280;55481;48.764;8.936;2023-03-23T12:03:47;96470;;;16.7;54.5
68489;BME280;55481;48.764;8.936;2023-03-23T12:06:25;96470;;;16.9;54.5
68489;BME280;55481;48.764;8.936;2023-03-23T12:09:52;96470;;;17.1;54
68489;BME280;55481;48.764;8.936;2023-03-23T12:11:19;96460;;;17;54
68489;BME280;55481;48.764;8.936;2023-03-23T12:13:51;96460;;;16.7;55
68489;BME280;55481;48.764;8.936;2023-03-23T12:16:36;96460;;;17.4;53.5
68489;BME280;55481;48.764;8.936;2023-03-23T12:23:54;96460;;;16.7;55
68489;BME280;55481;48.764;8.936;2023-03-23T12:26:28;96460;;;16.6;55.5
68489;BME280;55481;48.764;8.936;2023-03-23T12:36:23;96450;;;17.8;53
68489;BME280;55481;48.764;8.936;2023-03-23T12:38:56;96430;;;18.4;52
68489;BME280;55481;48.764;8.936;2023-03-23T12:44:06;96420;;;18.3;52.5
68489;BME280;55481;48.764;8.936;2023-03-23T12:49:00;96420;;;18.6;52.5
68489;BME280;55481;48.764;8.936;2023-03-23T12:51:30;96430;;;18.2;53
68489;BME280;55481;48.764;8.936;2023-03-23T12:55:04;96440;;;17.7;54.5
68489;BME280;55481;48.764;8.936;2023-03-23T12:56:34;96430;;;17.6;54.5
68489;BME280;55481;48.764;8.936;2023-03-23T13:03:57;96420;;;17.6;54.5
68489;BME280;55481;48.764;8.936;2023-03-23T13:06:29;96410;;;17.7;54
68489;BME280;55481;48.764;8.936;2023-03-23T13:09:01;96410;;;18;53.5
68489;BME280;55481;48.764;8.936;2023-03-23T13:11:31;96400;;;18.2;53
68489;BME280;55481;48.764;8.936;2023-03-23T13:15:04;96410;;;17.9;54
68489;BME280;55481;48.764;8.936;2023-03-23T13:16:32;96410;;;17.9;54
68489;BME280;55481;48.764;8.936;2023-03-23T13:19:04;96400;;;17.8;54
68489;BME280;55481;48.764;8.936;2023-03-23T13:21:32;96400;;;17.5;54.5
68489;BME280;55481;48.764;8.936;2023-03-23T13:24:03;96400;;;17.7;54.5
68489;BME280;55481;48.764;8.936;2023-03-23T13:26:37;96390;;;17.9;53.5
68489;BME280;55481;48.764;8.936;2023-03-23T13:34:22;96390;;;17.7;54
68489;BME280;55481;48.764;8.936;2023-03-23T13:39:21;96390;;;18;53.5
68489;BME280;55481;48.764;8.936;2023-03-23T13:41:45;96390;;;18.2;53
68489;BME280;55481;48.764;8.936;2023-03-23T13:44:17;96390;;;17.7;54.5
68489;BME280;55481;48.764;8.936;2023-03-23T13:46:53;96390;;;17.5;54.5
68489;BME280;55481;48.764;8.936;2023-03-23T13:49:19;96390;;;17.2;55.5
68489;BME280;55481;48.764;8.936;2023-03-23T13:54:20;96390;;;16.9;55.5
68489;BME280;55481;48.764;8.936;2023-03-23T13:56:48;96380;;;17;55
68489;BME280;55481;48.764;8.936;2023-03-23T14:04:16;96370;;;17;55
68489;BME280;55481;48.764;8.936;2023-03-23T14:09:18;96370;;;16.5;55.5
68489;BME280;55481;48.764;8.936;2023-03-23T14:11:49;96360;;;16.6;55.5
68489;BME280;55481;48.764;8.936;2023-03-23T14:17:16;96350;;;16.8;55
68489;BME280;55481;48.764;8.936;2023-03-23T14:19:31;96350;;;16.8;55
68489;BME280;55481;48.764;8.936;2023-03-23T14:24:27;96340;;;16.8;55
68489;BME280;55481;48.764;8.936;2023-03-23T14:27:12;96340;;;16.8;55
68489;BME280;55481;48.764;8.936;2023-03-23T14:29:34;96330;;;17.1;54.5
68489;BME280;55481;48.764;8.936;2023-03-23T14:32:06;96330;;;17.1;54.5
68489;BME280;55481;48.764;8.936;2023-03-23T14:37:01;96330;;;17.2;54.5
68489;BME280;55481;48.764;8.936;2023-03-23T14:42:12;96330;;;17.1;54.5
68489;BME280;55481;48.764;8.936;2023-03-23T14:44:42;96340;;;17;54.5
68489;BME280;55481;48.764;8.936;2023-03-23T14:47:13;96340;;;16.9;54.5
68489;BME280;55481;48.764;8.936;2023-03-23T14:52:08;96350;;;17;54.5
68489;BME280;55481;48.764;8.936;2023-03-23T14:54:33;96340;;;17;54.5
68489;BME280;55481;48.764;8.936;2023-03-23T14:57:14;96340;;;17;54.5
68489;BME280;55481;48.764;8.936;2023-03-23T14:59:29;96350;;;17.1;54.5
68489;BME280;55481;48.764;8.936;2023-03-23T15:09:32;96340;;;17.2;54.5
68489;BME280;55481;48.764;8.936;2023-03-23T15:12:03;96340;;;17.2;54.5
68489;BME280;55481;48.764;8.936;2023-03-23T15:14:37;96340;;;17;54.5
68489;BME280;55481;48.764;8.936;2023-03-23T15:19:42;96350;;;16.8;55
68489;BME280;55481;48.764;8.936;2023-03-23T15:22:15;96350;;;16.8;55
68489;BME280;55481;48.764;8.936;2023-03-23T15:27:15;96350;;;16.7;55
68489;BME280;55481;48.764;8.936;2023-03-23T15:29:45;96350;;;16.7;55
68489;BME280;55481;48.764;8.936;2023-03-23T15:39:40;96350;;;16.5;55
68489;BME280;55481;48.764;8.936;2023-03-23T15:42:27;96340;;;16.6;54.5
68489;BME280;55481;48.764;8.936;2023-03-23T15:44:42;96340;;;16.6;54.5
68489;BME280;55481;48.764;8.936;2023-03-23T15:47:19;96340;;;16.6;54.5
68489;BME280;55481;48.764;8.936;2023-03-23T15:49:58;96340;;;16.6;54.5
68489;BME280;55481;48.764;8.936;2023-03-23T15:52:21;96340;;;16.5;54.5
68489;BME280;55481;48.764;8.936;2023-03-23T15:54:52;96340;;;16.5;54.5
68489;BME280;55481;48.764;8.936;2023-03-23T15:57:23;96340;;;16.4;55
68489;BME280;55481;48.764;8.936;2023-03-23T15:59:54;96350;;;16.4;55
68489;BME280;55481;48.764;8.936;2023-03-23T16:02:26;96350;;;16.3;55
68489;BME280;55481;48.764;8.936;2023-03-23T16:07:20;96340;;;16.2;55
68489;BME280;55481;48.764;8.936;2023-03-23T16:09:52;96340;;;16.2;55
68489;BME280;55481;48.764;8.936;2023-03-23T16:12:48;96340;;;16.1;55
68489;BME280;55481;48.764;8.936;2023-03-23T16:17:35;96350;;;16.1;55
68489;BME280;55481;48.764;8.936;2023-03-23T16:20:10;96340;;;16.1;55
68489;BME280;55481;48.764;8.936;2023-03-23T16:22:37;96350;;;16.1;55
68489;BME280;55481;48.764;8.936;2023-03-23T16:25:08;96350;;;16;55
68489;BME280;55481;48.764;8.936;2023-03-23T16:27:43;96350;;;16;55
68489;BME280;55481;48.764;8.936;2023-03-23T16:30:17;96360;;;16;55
68489;BME280;55481;48.764;8.936;2023-03-23T16:32:35;96360;;;15.9;55
68489;BME280;55481;48.764;8.936;2023-03-23T16:35:06;96360;;;15.9;55
68489;BME280;55481;48.764;8.936;2023-03-23T16:40:01;96360;;;15.7;55
68489;BME280;55481;48.764;8.936;2023-03-23T16:42:38;96360;;;15.7;55.5
68489;BME280;55481;48.764;8.936;2023-03-23T16:47:40;96370;;;15.6;55.5
68489;BME280;55481;48.764;8.936;2023-03-23T16:52:43;96370;;;15.5;55.5
68489;BME280;55481;48.764;8.936;2023-03-23T16:55:10;96370;;;15.5;55.5
68489;BME280;55481;48.764;8.936;2023-03-23T16:57:43;96360;;;15.5;55.5
68489;BME280;55481;48.764;8.936;2023-03-23T17:05:09;96350;;;15.4;55.5
68489;BME280;55481;48.764;8.936;2023-03-23T17:07:39;96350;;;15.4;55.5
68489;BME280;55481;48.764;8.936;2023-03-23T17:10:11;96330;;;15.4;55.5
68489;BME280;55481;48.764;8.936;2023-03-23T17:12:46;96340;;;15.3;55.5
68489;BME280;55481;48.764;8.936;2023-03-23T17:17:47;96340;;;15.3;55.5
68489;BME280;55481;48.764;8.936;2023-03-23T17:20:16;96340;;;15.3;55.5
68489;BME280;55481;48.764;8.936;2023-03-23T17:22:46;96350;;;15.2;55.5
68489;BME280;55481;48.764;8.936;2023-03-23T17:25:17;96340;;;15.2;55.5
68489;BME280;55481;48.764;8.936;2023-03-23T17:27:53;96350;;;15.1;55.5
68489;BME280;55481;48.764;8.936;2023-03-23T17:30:18;96340;;;15.2;55.5
68489;BME280;55481;48.764;8.936;2023-03-23T17:32:49;96340;;;15.1;55.5
68489;BME280;55481;48.764;8.936;2023-03-23T17:37:44;96340;;;15;55.5
68489;BME280;55481;48.764;8.936;2023-03-23T17:40:15;96340;;;15;55.5
68489;BME280;55481;48.764;8.936;2023-03-23T17:42:46;96340;;;15;55.5
68489;BME280;55481;48.764;8.936;2023-03-23T17:45:17;96340;;;15;55.5
68489;BME280;55481;48.764;8.936;2023-03-23T17:47:48;96330;;;14.9;55.5
68489;BME280;55481;48.764;8.936;2023-03-23T17:52:44;96340;;;14.7;56
68489;BME280;55481;48.764;8.936;2023-03-23T18:02:46;96340;;;14.7;56
68489;BME280;55481;48.764;8.936;2023-03-23T18:05:16;96340;;;14.6;56
68489;BME280;55481;48.764;8.936;2023-03-23T18:07:48;96350;;;14.6;56
68489;BME280;55481;48.764;8.936;2023-03-23T18:13:02;96350;;;14.6;56
68489;BME280;55481;48.764;8.936;2023-03-23T18:15:26;96350;;;14.6;55.5
68489;BME280;55481;48.764;8.936;2023-03-23T18:20:21;96340;;;14.6;56
68489;BME280;55481;48.764;8.936;2023-03-23T18:22:52;96350;;;14.5;56
68489;BME280;55481;48.764;8.936;2023-03-23T18:30:24;96340;;;14.5;55.5
68489;BME280;55481;48.764;8.936;2023-03-23T18:32:55;96340;;;14.5;56
68489;BME280;55481;48.764;8.936;2023-03-23T18:35:26;96330;;;14.5;56
68489;BME280;55481;48.764;8.936;2023-03-23T18:37:57;96340;;;14.5;56
68489;BME280;55481;48.764;8.936;2023-03-23T18:43:04;96350;;;14.4;56
68489;BME280;55481;48.764;8.936;2023-03-23T18:45:35;96350;;;14.5;55.5
68489;BME280;55481;48.764;8.936;2023-03-23T18:48:06;96350;;;14.5;55.5
68489;BME280;55481;48.764;8.936;2023-03-23T18:50:30;96350;;;14.4;55.5
68489;BME280;55481;48.764;8.936;2023-03-23T18:58:02;96360;;;14.4;55.5
68489;BME280;55481;48.764;8.936;2023-03-23T19:00:33;96360;;;14.3;56
68489;BME280;55481;48.764;8.936;2023-03-23T19:03:04;96370;;;14.3;56
68489;BME280;55481;48.764;8.936;2023-03-23T19:05:35;96360;;;14.3;56
68489;BME280;55481;48.764;8.936;2023-03-23T19:08:07;96370;;;14.2;56
68489;BME280;55481;48.764;8.936;2023-03-23T19:13:13;96370;;;14.2;56
68489;BME280;55481;48.764;8.936;2023-03-23T19:15:44;96370;;;14.2;56
68489;BME280;55481;48.764;8.936;2023-03-23T19:18:16;96370;;;14.2;56
68489;BME280;55481;48.764;8.936;2023-03-23T19:20:39;96370;;;14.2;56
68489;BME280;55481;48.764;8.936;2023-03-23T19:28:12;96360;;;14.2;56
68489;BME280;55481;48.764;8.936;2023-03-23T19:30:43;96370;;;14.1;56
68489;BME280;55481;48.764;8.936;2023-03-23T19:33:14;96370;;;14.1;56
68489;BME280;55481;48.764;8.936;2023-03-23T19:35:46;96370;;;14.2;56
68489;BME280;55481;48.764;8.936;2023-03-23T19:38:21;96370;;;14.1;56
68489;BME280;55481;48.764;8.936;2023-03-23T19:40:53;96370;;;14;56
68489;BME280;55481;48.764;8.936;2023-03-23T19:45:53;96370;;;14;56
68489;BME280;55481;48.764;8.936;2023-03-23T19:48:25;96360;;;14;56.5
68489;BME280;55481;48.764;8.936;2023-03-23T19:53:20;96350;;;13.9;56.5
68489;BME280;55481;48.764;8.936;2023-03-23T20:03:23;96350;;;13.8;56.5
68489;BME280;55481;48.764;8.936;2023-03-23T20:05:58;96350;;;13.8;56.5
68489;BME280;55481;48.764;8.936;2023-03-23T20:08:24;96350;;;13.8;56.5
68489;BME280;55481;48.764;8.936;2023-03-23T20:13:32;96340;;;13.7;57
68489;BME280;55481;48.764;8.936;2023-03-23T20:16:03;96340;;;13.6;57
68489;BME280;55481;48.764;8.936;2023-03-23T20:18:40;96340;;;13.7;57